Kuala Lumpur, Malaysia

6:06 AM MYT on September 05, 2015 (GMT +0800)
Sungai Buloh | | Change Station
CLOSE
Current Station
Personal Weather Station
Location: Sungai Buloh, Selangor
Elevation: 207 ft
Nearby Weather Stations

Elev 207 ft 3.21 °N, 101.56 °E | Updated 59 minutes ago

Mostly Cloudy
Mostly Cloudy
75.6 °F
Feels Like 78 °F
N
0.0
Wind Variable Wind from West
Gusts 0.0 mph

Today
High -- | Low -- °F
--% Chance of Precip.
Yesterday
High -- | Low -- °F
Precip. -- in
7:07 AM 7:17 PM
Waning Gibbous, 55% visible
Pressure 29.86 in
Visibility 5.0 miles
Clouds Few 1700 ft
Mostly Cloudy 28000 ft
Heat Index 78 °F
Dew Point 62 °F
Humidity 64%
Rainfall 0.94 in
Snow Depth Not available.
UV 0 out of 12
Pollen Not available.
Air Quality Not available.
Flu Activity Not available.
METAR WMKK 042130Z 00000KT 8000 FEW017CB BKN280 25/23 Q1011 NOSIG
Pressure 29.86 in
Visibility 5.0 miles
Clouds Few 1700 ft
Mostly Cloudy 28000 ft
Heat Index 78 °F
Dew Point 62 °F
Humidity 64%
Rainfall 0.94 in
Snow Depth Not available.
UV 0 out of 12
Pollen Not available.
Air Quality Not available.
Flu Activity Not available.
METAR WMKK 042130Z 00000KT 8000 FEW017CB BKN280 25/23 Q1011 NOSIG

10-Day Weather Forecast

×

Almanac

Astronomy

Sep. 05, 2015 Rise Set
Actual Time
Civil Twilight
Nautical Twilight
Astronomical Twilight
Moon
Length of Visible Light
Length of Day
Tomorrow will be .
, % of the Moon is Illuminated

Today's Extremes

Country Highs Country Lows

Community

WunderPhotos

Upload Photos

1,852,305 photos uploaded!

WunderBlogs® & News

Nearby

Air Quality

  Air Quality AQ Index Pollutant
Not available.

Snow Depth

Station Depth Elevation

Earthquake Activity

City Distance Mag. Time & Date
Minimum magnitude displayed is 2.5.

Coastal Water Temperatures

Place Temperature

Stations

Nearby Weather Stations

Station Location Temp. Windchill Dew Point Humidity Wind Precip. Elev Updated Type